Time;durP1;ratioP1;P1;durP2;ratioP2;P2;SDS_P1;SDS_P2;PMS_P1;PMS_P2;Temp;Humidity;BMP_temperature;BMP_pressure;BME280_temperature;BME280_humidity;BME280_pressure;Samples;Min_cycle;Max_cycle;Signal;HPM_P1;HPM_P2
2023/09/20 00:01:51;;;;;;;7.82;3.50;;;17.40;99.90;;;;;;5012833;28;20043;-68
2023/09/20 00:04:17;;;;;;;8.88;3.83;;;17.40;99.90;;;;;;5022703;28;20038;-67
2023/09/20 00:06:42;;;;;;;9.05;4.05;;;17.40;99.90;;;;;;5031087;28;20392;-67
2023/09/20 00:09:08;;;;;;;9.13;3.70;;;17.40;99.90;;;;;;5023255;28;20026;-67
2023/09/20 00:11:35;;;;;;;9.38;3.70;;;17.50;99.90;;;;;;5018586;28;20542;-67
2023/09/20 00:14:00;;;;;;;7.45;3.83;;;17.40;99.90;;;;;;5022976;28;20033;-67
2023/09/20 00:16:28;;;;;;;7.97;3.53;;;17.30;99.90;;;;;;5026572;28;20171;-68
2023/09/20 00:18:54;;;;;;;8.15;3.55;;;17.40;99.90;;;;;;5030759;28;20052;-67
2023/09/20 00:21:20;;;;;;;10.57;3.90;;;17.40;99.90;;;;;;5022556;28;20033;-68
2023/09/20 00:23:46;;;;;;;10.75;3.85;;;17.40;99.90;;;;;;5031232;28;20527;-68
2023/09/20 00:26:13;;;;;;;7.50;3.55;;;17.50;99.90;;;;;;5019310;28;20034;-68
2023/09/20 00:28:39;;;;;;;9.15;4.38;;;17.40;99.90;;;;;;5024557;28;20191;-67
2023/09/20 00:31:05;;;;;;;11.02;4.18;;;17.50;99.90;;;;;;5031922;28;20597;-68
2023/09/20 00:33:31;;;;;;;8.20;3.88;;;17.40;99.90;;;;;;5028329;28;20038;-68
2023/09/20 00:35:57;;;;;;;8.70;3.92;;;17.40;99.90;;;;;;5026610;28;20037;-68
2023/09/20 00:38:24;;;;;;;8.50;3.72;;;17.50;99.90;;;;;;5026548;28;20111;-68
2023/09/20 00:40:50;;;;;;;7.70;3.80;;;17.50;99.90;;;;;;5027327;28;20038;-68
2023/09/20 00:43:23;;;;;;;8.90;4.22;;;17.50;99.90;;;;;;5019763;28;20140;-68
2023/09/20 00:45:50;;;;;;;8.02;3.95;;;17.60;99.90;;;;;;5026015;28;20511;-67
2023/09/20 00:48:17;;;;;;;9.73;3.80;;;17.60;99.90;;;;;;5034580;28;20077;-68
2023/09/20 00:50:43;;;;;;;10.10;3.50;;;17.50;99.90;;;;;;5014357;28;20100;-68
2023/09/20 00:53:12;;;;;;;7.18;3.70;;;17.50;99.90;;;;;;5030579;28;20522;-68
2023/09/20 00:55:38;;;;;;;12.40;3.85;;;17.50;99.90;;;;;;5009821;28;20408;-68
2023/09/20 00:58:07;;;;;;;8.00;3.42;;;17.60;99.90;;;;;;5030199;28;20045;-68
2023/09/20 01:00:36;;;;;;;9.15;3.47;;;17.60;99.90;;;;;;5024469;28;20044;-68
2023/09/20 01:03:02;;;;;;;9.77;3.60;;;17.60;99.90;;;;;;5026001;28;20080;-68
2023/09/20 01:05:33;;;;;;;6.68;3.45;;;17.60;99.90;;;;;;5034260;28;20065;-68
2023/09/20 01:08:00;;;;;;;7.65;3.38;;;17.60;99.90;;;;;;5022632;28;20064;-68
2023/09/20 01:10:26;;;;;;;9.93;3.67;;;17.60;99.90;;;;;;5030409;28;20103;-68
2023/09/20 01:12:53;;;;;;;8.98;3.60;;;17.60;99.90;;;;;;5014748;28;20038;-68
2023/09/20 01:15:20;;;;;;;11.25;3.70;;;17.60;99.90;;;;;;5014278;28;20839;-67
2023/09/20 01:17:47;;;;;;;6.95;3.60;;;17.70;99.90;;;;;;5028079;28;20428;-69
2023/09/20 01:20:15;;;;;;;6.93;3.38;;;17.70;99.90;;;;;;5025912;28;20041;-68
2023/09/20 01:22:41;;;;;;;11.48;3.67;;;17.70;99.90;;;;;;5034205;28;20113;-68
2023/09/20 01:25:17;;;;;;;9.05;4.00;;;17.70;99.90;;;;;;5023406;28;20124;-68
2023/09/20 01:27:43;;;;;;;9.57;3.50;;;17.70;99.90;;;;;;5025026;28;20048;-68
2023/09/20 01:30:10;;;;;;;7.55;3.28;;;17.70;99.90;;;;;;5021813;28;20041;-68
2023/09/20 01:32:36;;;;;;;8.45;3.63;;;17.70;99.90;;;;;;5011099;28;20056;-69
2023/09/20 01:35:02;;;;;;;8.32;3.63;;;17.70;99.90;;;;;;5014655;28;20065;-67
2023/09/20 01:37:28;;;;;;;11.00;3.40;;;17.70;99.90;;;;;;5012303;28;20352;-67
2023/09/20 01:39:54;;;;;;;5.88;3.22;;;17.70;99.90;;;;;;5026355;28;20037;-67
2023/09/20 01:42:21;;;;;;;8.38;3.40;;;17.70;99.90;;;;;;5025414;28;20041;-68
2023/09/20 01:44:49;;;;;;;7.15;3.22;;;17.60;99.90;;;;;;5029916;28;20050;-68
2023/09/20 01:47:15;;;;;;;11.07;4.05;;;17.60;99.90;;;;;;5012943;28;20045;-67
2023/09/20 01:49:42;;;;;;;7.40;3.22;;;17.60;99.90;;;;;;5024970;28;20073;-67
2023/09/20 01:52:08;;;;;;;8.57;3.70;;;17.60;99.90;;;;;;5033603;28;20396;-68
2023/09/20 01:54:35;;;;;;;7.82;3.30;;;17.60;99.90;;;;;;5001718;28;20052;-68
2023/09/20 01:57:00;;;;;;;7.63;3.70;;;17.60;99.90;;;;;;5021794;28;20106;-68
2023/09/20 01:59:26;;;;;;;9.32;3.40;;;17.60;99.90;;;;;;5013057;28;20038;-68
2023/09/20 02:01:51;;;;;;;11.00;3.60;;;17.60;99.90;;;;;;5013589;28;20570;-68
2023/09/20 02:04:18;;;;;;;8.68;3.20;;;17.60;99.90;;;;;;5032666;28;20044;-68
2023/09/20 02:06:46;;;;;;;7.63;3.40;;;17.60;99.90;;;;;;5006877;28;20077;-68
2023/09/20 02:09:13;;;;;;;9.20;3.50;;;17.60;99.90;;;;;;5033739;28;20048;-69
2023/09/20 02:11:38;;;;;;;8.38;3.13;;;17.60;99.90;;;;;;5024656;28;20524;-69
2023/09/20 02:14:04;;;;;;;10.95;3.60;;;17.60;99.90;;;;;;5028414;28;20033;-68
2023/09/20 02:16:32;;;;;;;7.72;3.30;;;17.60;99.90;;;;;;5024875;28;20034;-67
2023/09/20 02:18:58;;;;;;;8.38;3.45;;;17.60;99.90;;;;;;5022648;28;20048;-68
2023/09/20 02:21:23;;;;;;;8.50;3.03;;;17.60;99.90;;;;;;5029421;28;20042;-68
2023/09/20 02:23:56;;;;;;;14.20;3.75;;;17.60;99.90;;;;;;5027585;28;20601;-68
2023/09/20 02:26:22;;;;;;;11.38;3.67;;;17.60;99.90;;;;;;5012304;28;20108;-68
2023/09/20 02:28:48;;;;;;;6.05;3.33;;;17.70;99.90;;;;;;5017980;28;20045;-68
2023/09/20 02:31:13;;;;;;;9.48;3.17;;;17.60;99.90;;;;;;5029477;28;20034;-68
2023/09/20 02:33:39;;;;;;;10.50;3.47;;;17.60;99.90;;;;;;5032668;28;20042;-68
2023/09/20 02:36:05;;;;;;;6.57;3.13;;;17.70;99.90;;;;;;5004163;28;20041;-68
2023/09/20 02:38:31;;;;;;;10.93;3.67;;;17.60;99.90;;;;;;5014510;28;20400;-68
2023/09/20 02:40:59;;;;;;;10.45;3.80;;;17.70;99.90;;;;;;5032332;28;20052;-68
2023/09/20 02:43:26;;;;;;;7.25;3.50;;;17.60;99.90;;;;;;5029399;28;20303;-69
2023/09/20 02:45:52;;;;;;;7.18;3.35;;;17.70;99.90;;;;;;5025061;28;20037;-69
2023/09/20 02:48:18;;;;;;;10.52;3.80;;;17.70;99.90;;;;;;5021546;28;20053;-68
2023/09/20 02:50:44;;;;;;;7.78;3.55;;;17.70;99.90;;;;;;4997172;28;20048;-68
2023/09/20 02:53:10;;;;;;;7.45;3.30;;;17.70;99.90;;;;;;5028494;28;20156;-68
2023/09/20 02:55:37;;;;;;;5.88;3.28;;;17.60;99.90;;;;;;5021060;28;20033;-68
2023/09/20 02:58:04;;;;;;;7.57;3.55;;;17.70;99.90;;;;;;5029073;28;20381;-68
2023/09/20 03:00:31;;;;;;;6.32;3.30;;;17.70;99.90;;;;;;5017945;28;20076;-69
2023/09/20 03:03:01;;;;;;;9.50;3.72;;;17.70;99.90;;;;;;5014513;28;20052;-68
2023/09/20 03:05:29;;;;;;;8.55;3.63;;;17.70;99.90;;;;;;5015353;28;20508;-68
2023/09/20 03:07:55;;;;;;;9.48;3.90;;;17.70;99.90;;;;;;5029420;28;20507;-68
2023/09/20 03:10:23;;;;;;;7.32;3.70;;;17.70;99.90;;;;;;5015260;28;20041;-68
2023/09/20 03:12:51;;;;;;;8.38;3.70;;;17.70;99.90;;;;;;5025385;28;20088;-68
2023/09/20 03:15:21;;;;;;;8.93;3.90;;;17.70;99.90;;;;;;5022394;28;20103;-69
2023/09/20 03:17:49;;;;;;;6.15;3.47;;;17.60;99.90;;;;;;5028414;28;20566;-68
2023/09/20 03:20:23;;;;;;;7.80;3.40;;;17.60;99.90;;;;;;5029592;28;20095;-68
2023/09/20 03:22:53;;;;;;;6.82;3.42;;;17.70;99.90;;;;;;5023066;28;20524;-67
2023/09/20 03:25:20;;;;;;;13.32;4.18;;;17.50;99.90;;;;;;5023658;28;20042;-67
2023/09/20 03:27:49;;;;;;;10.95;3.60;;;17.50;99.90;;;;;;5007531;28;20052;-68
2023/09/20 03:30:20;;;;;;;9.27;3.88;;;17.50;99.90;;;;;;5023003;28;20424;-68
2023/09/20 03:32:49;;;;;;;9.27;3.80;;;17.40;99.90;;;;;;5031934;28;20037;-68
2023/09/20 03:35:16;;;;;;;8.82;3.58;;;17.30;99.90;;;;;;5022916;28;20072;-68
2023/09/20 03:37:43;;;;;;;12.05;4.05;;;17.30;99.90;;;;;;5021789;28;20038;-67
2023/09/20 03:40:11;;;;;;;7.60;3.53;;;17.20;99.90;;;;;;5011406;28;20136;-69
2023/09/20 03:42:40;;;;;;;11.35;3.70;;;17.10;99.90;;;;;;5017430;28;20041;-68
2023/09/20 03:45:10;;;;;;;8.18;3.58;;;17.10;99.90;;;;;;5017488;28;20029;-68
2023/09/20 03:47:36;;;;;;;9.80;4.13;;;16.90;99.90;;;;;;5017943;28;20690;-68
2023/09/20 03:50:03;;;;;;;10.05;3.22;;;16.90;99.90;;;;;;5026361;28;20055;-66
2023/09/20 03:52:29;;;;;;;7.85;3.60;;;16.80;99.90;;;;;;5022772;28;20052;-68
2023/09/20 03:54:55;;;;;;;13.07;4.10;;;16.70;99.90;;;;;;5031643;28;20037;-68
2023/09/20 03:57:24;;;;;;;10.15;4.40;;;16.60;99.90;;;;;;5017942;28;20394;-68
2023/09/20 03:59:51;;;;;;;8.35;3.60;;;16.60;99.90;;;;;;4993314;28;20049;-68
2023/09/20 04:02:17;;;;;;;12.40;4.13;;;16.50;99.90;;;;;;5004520;28;20063;-67
2023/09/20 04:04:43;;;;;;;10.57;4.82;;;16.50;99.90;;;;;;5029477;28;20492;-67
2023/09/20 04:07:08;;;;;;;8.27;3.45;;;16.50;99.90;;;;;;5027923;28;20045;-67
2023/09/20 04:09:35;;;;;;;9.50;3.70;;;16.40;99.90;;;;;;5026912;28;20124;-67
2023/09/20 04:12:03;;;;;;;9.48;4.00;;;16.40;99.90;;;;;;5009195;28;20049;-67
2023/09/20 04:14:28;;;;;;;9.20;4.30;;;16.30;99.90;;;;;;5033932;28;20048;-68
2023/09/20 04:16:54;;;;;;;9.82;3.85;;;16.20;99.90;;;;;;5030560;28;20403;-67
2023/09/20 04:19:21;;;;;;;11.07;4.22;;;16.10;99.90;;;;;;5022194;28;20048;-68
2023/09/20 04:21:47;;;;;;;9.65;4.13;;;16.00;99.90;;;;;;5015553;28;20349;-67
2023/09/20 04:24:17;;;;;;;11.25;4.38;;;16.00;99.90;;;;;;5011945;28;20049;-67
2023/09/20 04:26:43;;;;;;;11.45;3.97;;;15.90;99.90;;;;;;5028054;28;20038;-67
2023/09/20 04:29:08;;;;;;;9.20;4.35;;;15.90;99.90;;;;;;5023928;28;20100;-67
2023/09/20 04:31:34;;;;;;;7.97;3.63;;;15.80;99.90;;;;;;5012934;28;20141;-67
2023/09/20 04:34:00;;;;;;;12.23;3.95;;;15.80;99.90;;;;;;5024594;28;20043;-67
2023/09/20 04:36:27;;;;;;;9.00;3.90;;;15.80;99.90;;;;;;5000142;28;20112;-67
2023/09/20 04:38:53;;;;;;;10.43;4.20;;;15.80;99.90;;;;;;5031421;28;20048;-67
2023/09/20 04:41:18;;;;;;;9.82;4.00;;;15.80;99.90;;;;;;5017322;28;20033;-68
2023/09/20 04:43:44;;;;;;;11.23;4.05;;;15.80;99.90;;;;;;5027884;28;20111;-68
2023/09/20 04:46:10;;;;;;;6.72;3.70;;;15.70;99.90;;;;;;5021334;28;20049;-68
2023/09/20 04:48:38;;;;;;;10.98;4.10;;;15.70;99.90;;;;;;5024855;28;20037;-68
2023/09/20 04:51:04;;;;;;;12.30;4.03;;;15.60;99.90;;;;;;5018555;28;20034;-68
2023/09/20 04:53:29;;;;;;;8.93;4.43;;;15.60;99.90;;;;;;5026131;28;20091;-67
2023/09/20 04:55:56;;;;;;;10.85;4.35;;;15.60;99.90;;;;;;5024439;28;20052;-69
2023/09/20 04:58:21;;;;;;;10.07;3.83;;;15.50;99.90;;;;;;5024813;28;20041;-68
2023/09/20 05:00:48;;;;;;;10.65;4.28;;;15.50;99.90;;;;;;5033015;28;20128;-69
2023/09/20 05:03:15;;;;;;;10.88;3.88;;;15.50;99.90;;;;;;5027624;28;20042;-69
2023/09/20 05:05:43;;;;;;;9.13;4.10;;;15.50;99.90;;;;;;5021671;28;20053;-69
2023/09/20 05:08:09;;;;;;;9.80;3.80;;;15.40;99.90;;;;;;5010443;28;20136;-69
2023/09/20 05:10:34;;;;;;;7.75;3.85;;;15.40;99.90;;;;;;5027195;28;20056;-68
2023/09/20 05:13:00;;;;;;;6.70;3.47;;;15.50;99.90;;;;;;5032252;28;20038;-68
2023/09/20 05:15:26;;;;;;;12.38;4.00;;;15.40;99.90;;;;;;5018983;28;20413;-68
2023/09/20 05:17:52;;;;;;;9.65;3.97;;;15.40;99.90;;;;;;5025837;28;20030;-68
2023/09/20 05:20:17;;;;;;;7.47;3.97;;;15.40;99.90;;;;;;5015313;28;20038;-68
2023/09/20 05:22:43;;;;;;;10.18;3.85;;;15.50;99.90;;;;;;5006214;28;20475;-68
2023/09/20 05:25:09;;;;;;;6.88;3.80;;;15.50;99.90;;;;;;5026765;28;20056;-68
2023/09/20 05:27:36;;;;;;;9.25;3.90;;;15.60;99.90;;;;;;5020507;28;20038;-68
2023/09/20 05:30:02;;;;;;;9.73;3.60;;;15.60;99.90;;;;;;5014133;28;20045;-68
2023/09/20 05:32:28;;;;;;;10.55;3.88;;;15.60;99.90;;;;;;5016284;28;20045;-68
2023/09/20 05:34:55;;;;;;;8.10;3.75;;;15.70;99.90;;;;;;5019315;28;20033;-68
2023/09/20 05:37:21;;;;;;;9.93;3.63;;;15.70;99.90;;;;;;5016579;28;20048;-68
2023/09/20 05:39:48;;;;;;;8.60;3.70;;;15.70;99.90;;;;;;5026128;28;20042;-67
2023/09/20 05:42:15;;;;;;;11.30;3.60;;;15.70;99.90;;;;;;5027732;28;20041;-68
2023/09/20 05:44:40;;;;;;;9.10;3.42;;;15.80;99.90;;;;;;5024047;28;20049;-68
2023/09/20 05:47:08;;;;;;;9.32;3.40;;;15.80;99.90;;;;;;5029655;28;20071;-68
2023/09/20 05:49:35;;;;;;;6.63;3.42;;;15.80;99.90;;;;;;5012384;28;20080;-68
2023/09/20 05:52:02;;;;;;;6.72;3.20;;;15.90;99.90;;;;;;5018504;28;20045;-69
2023/09/20 05:54:28;;;;;;;8.07;4.53;;;15.90;99.90;;;;;;5010511;28;20089;-68
2023/09/20 05:56:54;;;;;;;9.18;3.65;;;16.00;99.90;;;;;;5017673;28;20041;-69
2023/09/20 05:59:20;;;;;;;10.30;3.70;;;16.00;99.90;;;;;;5020580;28;20068;-69
2023/09/20 06:01:45;;;;;;;11.30;3.42;;;16.10;99.90;;;;;;5012612;28;20076;-68
2023/09/20 06:04:11;;;;;;;11.43;4.18;;;16.20;99.90;;;;;;5018524;28;20092;-69
2023/09/20 06:06:37;;;;;;;10.07;3.70;;;16.20;99.90;;;;;;5006261;28;20519;-69
2023/09/20 06:09:03;;;;;;;9.75;3.60;;;16.20;99.90;;;;;;5010050;28;20060;-69
2023/09/20 06:11:29;;;;;;;6.90;3.75;;;16.30;99.90;;;;;;5010233;28;20500;-68
2023/09/20 06:13:55;;;;;;;7.00;3.58;;;16.30;99.90;;;;;;5024285;28;20472;-69
2023/09/20 06:16:22;;;;;;;7.80;4.10;;;16.30;99.90;;;;;;5021409;28;20456;-68
2023/09/20 06:18:50;;;;;;;9.60;3.83;;;16.30;99.90;;;;;;5025348;28;20056;-69
2023/09/20 06:21:17;;;;;;;9.48;3.50;;;16.40;99.90;;;;;;5022878;28;20226;-69
2023/09/20 06:23:44;;;;;;;10.80;4.30;;;16.40;99.90;;;;;;5033179;28;20083;-69
2023/09/20 06:26:12;;;;;;;9.13;3.78;;;16.50;99.90;;;;;;5010729;28;20080;-69
2023/09/20 06:28:41;;;;;;;8.10;3.97;;;16.50;99.90;;;;;;5012542;28;20482;-68
2023/09/20 06:31:15;;;;;;;8.38;3.67;;;16.60;99.90;;;;;;5015467;28;20085;-69
2023/09/20 06:33:43;;;;;;;10.60;3.65;;;16.60;99.90;;;;;;5007068;28;20058;-68
2023/09/20 06:36:08;;;;;;;8.30;3.50;;;16.70;99.90;;;;;;5032563;28;20038;-69
2023/09/20 06:38:34;;;;;;;9.90;3.70;;;16.70;99.90;;;;;;5005711;28;20045;-69
2023/09/20 06:41:00;;;;;;;8.38;3.90;;;16.80;99.90;;;;;;5026775;28;20037;-68
2023/09/20 06:43:26;;;;;;;8.60;3.72;;;16.80;99.90;;;;;;5023902;28;20488;-68
2023/09/20 06:45:52;;;;;;;9.98;3.80;;;16.90;99.90;;;;;;5022475;28;20038;-68
2023/09/20 06:48:22;;;;;;;6.68;3.55;;;16.90;99.90;;;;;;5029495;28;20121;-69
2023/09/20 06:50:54;;;;;;;10.10;4.15;;;17.00;99.90;;;;;;5000444;28;20626;-68
2023/09/20 06:53:20;;;;;;;9.20;4.05;;;17.10;99.90;;;;;;5010889;28;20053;-68
2023/09/20 06:55:49;;;;;;;8.77;4.00;;;17.20;99.90;;;;;;5014592;28;20124;-68
2023/09/20 06:58:14;;;;;;;8.32;4.00;;;17.20;99.90;;;;;;5022380;28;20091;-68
2023/09/20 07:00:41;;;;;;;6.85;4.03;;;17.20;99.90;;;;;;5032099;28;20041;-68
2023/09/20 07:03:08;;;;;;;9.65;3.97;;;17.20;99.90;;;;;;5020052;28;20057;-69
2023/09/20 07:05:34;;;;;;;10.93;3.58;;;17.20;99.90;;;;;;5022538;28;20041;-68
2023/09/20 07:08:00;;;;;;;7.13;3.83;;;17.30;99.90;;;;;;5028297;28;20764;-68
2023/09/20 07:10:28;;;;;;;6.57;3.72;;;17.30;99.90;;;;;;5010518;28;20116;-69
2023/09/20 07:12:54;;;;;;;10.30;4.07;;;17.40;99.90;;;;;;5031215;28;20038;-69
2023/09/20 07:15:20;;;;;;;8.23;3.80;;;17.40;99.90;;;;;;5021011;28;20048;-67
2023/09/20 07:17:58;;;;;;;9.88;4.07;;;17.40;99.90;;;;;;5019396;28;20044;-69
2023/09/20 07:20:36;;;;;;;10.57;4.40;;;17.40;99.90;;;;;;5011829;28;20550;-68
2023/09/20 07:23:03;;;;;;;8.57;4.05;;;17.40;99.90;;;;;;5020106;28;20113;-69
2023/09/20 07:25:28;;;;;;;8.75;3.53;;;17.40;99.90;;;;;;5027687;28;20146;-68
2023/09/20 07:27:55;;;;;;;10.13;3.50;;;17.50;99.90;;;;;;5025294;28;20499;-68
2023/09/20 07:30:22;;;;;;;9.88;3.47;;;17.60;99.90;;;;;;5025341;28;20041;-69
2023/09/20 07:32:51;;;;;;;7.68;3.22;;;17.80;99.90;;;;;;5010365;28;20049;-69
2023/09/20 07:35:26;;;;;;;7.18;3.45;;;17.80;99.90;;;;;;5026126;28;20109;-70
2023/09/20 07:37:57;;;;;;;6.07;3.50;;;17.90;99.90;;;;;;5003577;28;20048;-68
2023/09/20 07:40:29;;;;;;;11.05;3.88;;;18.10;99.90;;;;;;5002360;28;20057;-69
2023/09/20 07:42:59;;;;;;;8.90;3.85;;;18.20;99.90;;;;;;5023423;28;20041;-68
2023/09/20 07:45:31;;;;;;;11.23;3.63;;;18.40;99.90;;;;;;5016750;28;20049;-69
2023/09/20 07:47:57;;;;;;;8.20;3.30;;;18.50;99.90;;;;;;5012920;28;20485;-69
2023/09/20 07:50:25;;;;;;;9.55;3.80;;;18.70;99.90;;;;;;4994469;28;20038;-69
2023/09/20 07:52:50;;;;;;;9.23;3.58;;;18.80;99.90;;;;;;5013803;28;20046;-69
2023/09/20 07:55:17;;;;;;;8.93;3.80;;;18.80;99.90;;;;;;5005945;28;20041;-69
2023/09/20 07:57:43;;;;;;;9.80;3.80;;;18.80;99.90;;;;;;5024668;28;20052;-69
2023/09/20 08:00:15;;;;;;;10.15;3.40;;;18.80;99.90;;;;;;5023485;28;20053;-69
2023/09/20 08:02:46;;;;;;;5.95;3.38;;;18.90;99.90;;;;;;5030760;28;20068;-68
2023/09/20 08:05:13;;;;;;;8.07;3.50;;;18.90;99.90;;;;;;5019664;28;20046;-69
2023/09/20 08:07:38;;;;;;;8.50;3.63;;;19.00;99.90;;;;;;5021940;28;20120;-69
2023/09/20 08:10:05;;;;;;;5.85;3.10;;;19.00;99.90;;;;;;4996163;28;20121;-69
2023/09/20 08:12:31;;;;;;;7.80;3.70;;;19.10;99.90;;;;;;5020906;28;20045;-68
2023/09/20 08:14:57;;;;;;;6.07;3.25;;;19.10;99.90;;;;;;5001022;28;20046;-69
2023/09/20 08:20:10;;;;;;;6.65;3.10;;;19.10;99.90;;;;;;5024602;28;20504;-69
2023/09/20 09:01:07;;;;;;;8.25;3.38;;;19.00;99.90;;;;;;5019811;28;20037;-69
2023/09/20 09:03:33;;;;;;;5.22;3.20;;;19.00;99.90;;;;;;5023752;28;20056;-69
2023/09/20 09:06:01;;;;;;;7.55;3.35;;;19.10;99.90;;;;;;4999249;28;20092;-70
2023/09/20 09:08:28;;;;;;;6.10;3.10;;;19.20;99.90;;;;;;4993880;28;20448;-69
2023/09/20 09:10:53;;;;;;;4.68;3.05;;;19.20;99.90;;;;;;5027166;28;20041;-69
2023/09/20 09:13:19;;;;;;;8.70;3.40;;;19.30;99.90;;;;;;5025172;28;20242;-69
2023/09/20 09:15:46;;;;;;;6.40;3.33;;;19.40;99.90;;;;;;5026614;28;20362;-69
2023/09/20 09:18:18;;;;;;;6.28;3.20;;;19.50;99.90;;;;;;5030544;28;20045;-69
2023/09/20 09:20:46;;;;;;;6.05;3.20;;;19.60;99.90;;;;;;5025736;28;20116;-68
2023/09/20 09:23:11;;;;;;;5.55;3.20;;;19.50;99.90;;;;;;5034062;28;20034;-69
2023/09/20 09:25:37;;;;;;;5.82;2.90;;;19.40;99.90;;;;;;5020562;28;20041;-70
2023/09/20 09:28:03;;;;;;;5.68;3.00;;;19.40;99.90;;;;;;5014765;28;20133;-69
2023/09/20 09:30:31;;;;;;;7.45;3.45;;;19.30;99.90;;;;;;5027479;28;20075;-69
2023/09/20 09:32:57;;;;;;;6.03;3.40;;;19.20;99.90;;;;;;5016410;28;20034;-69
2023/09/20 09:35:23;;;;;;;7.82;3.67;;;19.20;99.90;;;;;;5018066;28;20557;-69
2023/09/20 09:37:48;;;;;;;8.20;3.15;;;19.10;99.90;;;;;;5023012;28;20691;-69
2023/09/20 09:40:14;;;;;;;5.97;3.05;;;19.10;99.90;;;;;;5022479;28;20037;-69
2023/09/20 09:42:43;;;;;;;5.97;3.20;;;19.10;99.90;;;;;;5022776;28;20124;-69
2023/09/20 09:45:09;;;;;;;5.97;3.20;;;19.10;99.90;;;;;;5025314;28;20049;-69
2023/09/20 09:47:36;;;;;;;5.70;2.70;;;19.10;99.90;;;;;;5006333;28;20052;-69
2023/09/20 09:50:06;;;;;;;6.13;3.25;;;19.10;99.90;;;;;;5017640;28;20054;-69
2023/09/20 09:52:34;;;;;;;5.28;3.00;;;19.10;99.90;;;;;;5025447;28;20108;-69
2023/09/20 09:55:00;;;;;;;6.50;2.85;;;19.00;99.90;;;;;;5015814;28;20045;-69
2023/09/20 09:57:26;;;;;;;5.03;2.95;;;19.00;99.90;;;;;;5025030;28;20043;-69
2023/09/20 09:59:52;;;;;;;6.55;3.20;;;19.00;99.90;;;;;;5020512;28;20076;-68
2023/09/20 10:02:20;;;;;;;5.32;3.25;;;19.00;99.90;;;;;;5021657;28;20038;-70
2023/09/20 10:04:53;;;;;;;5.22;3.28;;;19.10;99.90;;;;;;5021063;28;20107;-69
2023/09/20 10:07:22;;;;;;;7.22;3.35;;;19.10;99.90;;;;;;5023893;28;20048;-69
2023/09/20 10:09:52;;;;;;;6.18;3.20;;;19.20;99.90;;;;;;5021345;28;20485;-69
2023/09/20 10:12:21;;;;;;;5.35;3.17;;;19.30;99.90;;;;;;5014436;28;20042;-69
2023/09/20 10:14:47;;;;;;;5.38;3.20;;;19.30;99.90;;;;;;5023955;28;20041;-69
2023/09/20 10:17:20;;;;;;;5.47;3.05;;;19.40;99.90;;;;;;5005777;28;20049;-68
2023/09/20 10:19:53;;;;;;;5.05;3.00;;;19.40;99.90;;;;;;5033668;28;20037;-69
2023/09/20 10:22:21;;;;;;;5.47;3.05;;;19.60;99.90;;;;;;5017546;28;20111;-69
2023/09/20 10:24:50;;;;;;;5.85;3.13;;;19.60;99.90;;;;;;5023966;28;20037;-69
2023/09/20 10:27:17;;;;;;;6.60;3.00;;;19.70;99.90;;;;;;5024511;28;20025;-69
2023/09/20 10:30:09;;;;;;;7.68;3.22;;;19.80;99.90;;;;;;5023859;28;20061;-68
2023/09/20 10:32:56;;;;;;;8.18;3.38;;;19.90;99.90;;;;;;5000262;28;20516;-70
2023/09/20 10:35:33;;;;;;;7.57;3.28;;;20.00;99.90;;;;;;5022445;28;20388;-69
2023/09/20 10:38:08;;;;;;;6.00;3.28;;;20.00;99.90;;;;;;5021371;28;20116;-70
2023/09/20 10:40:55;;;;;;;6.43;3.30;;;19.90;99.90;;;;;;5015307;28;20084;-69
2023/09/20 10:43:43;;;;;;;8.05;3.17;;;20.00;99.90;;;;;;5023585;28;20048;-70
2023/09/20 10:46:09;;;;;;;9.73;3.15;;;20.00;99.90;;;;;;5011309;28;20045;-69
2023/09/20 10:48:48;;;;;;;5.88;3.00;;;20.00;99.90;;;;;;5021396;28;20082;-69
2023/09/20 10:51:49;;;;;;;7.00;3.35;;;20.10;99.90;;;;;;5019000;28;20034;-69
2023/09/20 10:54:36;;;;;;;6.53;3.37;;;20.00;99.90;;;;;;5021983;28;20516;-69
2023/09/20 10:57:05;;;;;;;6.03;3.25;;;20.00;99.90;;;;;;5021372;28;20037;-71
2023/09/20 10:59:31;;;;;;;7.13;3.17;;;19.90;99.90;;;;;;5028288;28;20052;-69
2023/09/20 11:02:05;;;;;;;5.57;3.20;;;20.00;99.90;;;;;;5026824;28;20381;-68
2023/09/20 11:04:31;;;;;;;4.40;3.00;;;20.00;99.90;;;;;;5023298;28;20049;-69
2023/09/20 11:07:02;;;;;;;6.07;3.00;;;20.10;99.90;;;;;;5020226;28;20038;-69
2023/09/20 11:09:33;;;;;;;5.78;3.08;;;20.40;99.90;;;;;;5007319;28;20041;-68
2023/09/20 11:12:04;;;;;;;4.97;2.78;;;20.60;99.90;;;;;;5027483;28;20041;-69
2023/09/20 11:14:34;;;;;;;6.05;3.17;;;20.80;99.90;;;;;;5003848;28;20085;-69
2023/09/20 11:17:02;;;;;;;6.43;2.92;;;20.70;99.90;;;;;;5023334;28;20041;-69
2023/09/20 11:19:28;;;;;;;4.68;2.90;;;20.60;99.90;;;;;;5014525;28;20057;-69
2023/09/20 11:21:54;;;;;;;4.13;2.80;;;20.60;99.90;;;;;;5028460;28;20046;-68
2023/09/20 11:24:20;;;;;;;6.97;2.92;;;20.60;99.90;;;;;;5020669;28;20044;-68
2023/09/20 11:26:48;;;;;;;5.88;2.90;;;20.70;99.90;;;;;;5005547;28;20095;-69
2023/09/20 11:29:16;;;;;;;6.00;2.88;;;20.60;99.90;;;;;;5010729;28;20045;-70
2023/09/20 11:31:45;;;;;;;4.40;2.55;;;20.50;99.90;;;;;;5013447;28;20052;-68
2023/09/20 11:34:11;;;;;;;8.15;3.05;;;20.50;99.90;;;;;;5017159;28;20084;-69
2023/09/20 11:36:42;;;;;;;7.38;2.92;;;20.70;99.90;;;;;;4992045;28;20049;-71
2023/09/20 11:39:08;;;;;;;4.85;3.00;;;20.60;99.90;;;;;;5025440;28;20038;-69
2023/09/20 11:41:36;;;;;;;6.00;3.17;;;20.80;99.90;;;;;;5023360;28;20044;-69
2023/09/20 11:44:05;;;;;;;4.80;3.00;;;20.80;99.90;;;;;;5030711;28;20038;-69
2023/09/20 11:46:35;;;;;;;6.35;3.10;;;20.80;99.90;;;;;;5020987;28;20103;-68
2023/09/20 11:49:05;;;;;;;5.57;2.88;;;20.90;99.90;;;;;;5022161;28;20498;-68
2023/09/20 11:51:37;;;;;;;4.90;3.10;;;20.80;99.90;;;;;;5002022;28;20452;-69
2023/09/20 11:54:06;;;;;;;6.38;3.33;;;21.00;99.90;;;;;;4992641;28;20543;-69
2023/09/20 11:56:34;;;;;;;7.22;3.20;;;21.00;99.90;;;;;;5022376;28;20116;-68
2023/09/20 11:59:10;;;;;;;8.90;3.33;;;21.20;99.90;;;;;;5023153;28;20045;-69
2023/09/20 12:01:41;;;;;;;6.25;3.53;;;21.40;99.90;;;;;;5018664;28;20041;-71
2023/09/20 12:04:08;;;;;;;6.68;3.47;;;21.50;99.90;;;;;;5019176;28;20045;-69
2023/09/20 12:06:35;;;;;;;8.27;3.85;;;21.50;99.90;;;;;;5022786;28;20044;-69
2023/09/20 12:09:01;;;;;;;7.88;3.67;;;21.70;99.90;;;;;;5031354;28;20060;-69
2023/09/20 12:11:26;;;;;;;6.00;3.58;;;21.70;99.90;;;;;;5010222;28;20037;-69
2023/09/20 12:13:52;;;;;;;5.20;3.65;;;21.80;99.90;;;;;;5021565;28;20049;-69
2023/09/20 12:16:18;;;;;;;4.97;3.30;;;21.70;99.90;;;;;;5020710;28;20046;-69
2023/09/20 12:18:44;;;;;;;7.03;3.45;;;21.70;99.90;;;;;;5027176;28;20133;-69
2023/09/20 12:21:10;;;;;;;4.65;3.28;;;21.90;99.90;;;;;;5022173;28;20416;-69
2023/09/20 12:23:38;;;;;;;7.70;3.38;;;21.90;99.90;;;;;;5025507;28;20044;-69
2023/09/20 12:26:05;;;;;;;5.82;3.28;;;21.80;99.90;;;;;;5034923;28;20037;-69
2023/09/20 12:28:31;;;;;;;6.18;3.08;;;22.00;99.90;;;;;;5027018;28;20411;-69
2023/09/20 12:30:58;;;;;;;6.13;2.80;;;22.00;99.90;;;;;;5009702;28;20117;-69
2023/09/20 12:33:27;;;;;;;7.05;3.00;;;22.10;99.90;;;;;;5022298;28;20081;-69
2023/09/20 12:35:54;;;;;;;6.18;3.13;;;22.20;99.90;;;;;;5016380;28;20037;-69
2023/09/20 12:38:19;;;;;;;6.53;3.55;;;22.10;99.90;;;;;;5026042;28;20037;-69
2023/09/20 12:40:45;;;;;;;5.95;3.20;;;22.10;99.90;;;;;;5026681;28;20037;-69
2023/09/20 12:43:11;;;;;;;4.32;2.75;;;22.10;99.90;;;;;;5030721;28;20095;-67
2023/09/20 12:45:36;;;;;;;5.10;2.50;;;22.10;99.90;;;;;;5024358;28;20121;-69
2023/09/20 12:48:02;;;;;;;5.10;2.72;;;22.20;99.90;;;;;;5023060;28;20046;-71
2023/09/20 12:50:36;;;;;;;4.90;2.45;;;22.30;99.90;;;;;;5034782;28;20124;-68
2023/09/20 12:53:01;;;;;;;4.28;2.63;;;22.40;99.90;;;;;;5022450;28;20069;-67
2023/09/20 12:55:27;;;;;;;4.65;2.70;;;22.40;99.90;;;;;;5030501;28;20069;-67
2023/09/20 12:57:52;;;;;;;4.68;2.50;;;22.50;99.90;;;;;;5022370;28;20469;-68
2023/09/20 13:00:19;;;;;;;5.43;2.90;;;22.40;99.90;;;;;;5030280;28;20037;-68
2023/09/20 13:02:45;;;;;;;7.30;2.88;;;22.30;99.90;;;;;;5008809;28;20045;-68
2023/09/20 13:05:12;;;;;;;6.28;2.80;;;22.40;99.90;;;;;;5026224;28;20515;-67
2023/09/20 13:07:39;;;;;;;4.75;2.63;;;22.40;99.90;;;;;;5034128;28;20053;-70
2023/09/20 13:10:08;;;;;;;3.80;2.42;;;22.40;99.90;;;;;;5025069;28;20049;-70
2023/09/20 13:12:36;;;;;;;4.07;2.67;;;22.60;99.90;;;;;;5024670;28;20049;-70
2023/09/20 13:15:02;;;;;;;5.78;2.83;;;22.60;99.90;;;;;;5030937;28;20080;-70
2023/09/20 13:17:28;;;;;;;4.50;2.80;;;22.50;99.90;;;;;;5028987;28;20045;-70
2023/09/20 13:19:53;;;;;;;6.05;2.60;;;22.40;99.90;;;;;;5025655;28;20044;-68
2023/09/20 13:22:20;;;;;;;5.50;2.67;;;22.40;99.90;;;;;;5026125;28;20033;-70
2023/09/20 13:24:47;;;;;;;3.75;2.28;;;22.40;99.90;;;;;;5028825;28;20033;-70
2023/09/20 13:27:14;;;;;;;5.78;2.33;;;22.40;99.90;;;;;;5008061;28;20046;-70
2023/09/20 13:29:40;;;;;;;3.45;2.50;;;22.40;99.90;;;;;;5022138;28;20117;-71